createdAt,value
2018-11-22T12:18:21.961Z,2.57
2018-11-22T12:23:25.226Z,2.38
2018-11-22T12:28:28.855Z,2.57
2018-11-22T12:33:32.130Z,2.75
2018-11-22T12:38:36.289Z,2.76
2018-11-22T12:43:39.897Z,2.78
2018-11-22T12:48:43.099Z,2.49
2018-11-22T12:53:46.681Z,2.49
2018-11-22T12:58:49.926Z,2.54
2018-11-22T13:03:53.219Z,2.56
2018-11-22T13:08:56.628Z,2.50
2018-11-22T13:14:00.120Z,2.48
2018-11-22T13:19:03.423Z,2.44
2018-11-22T13:24:06.850Z,2.35
2018-11-22T13:29:10.438Z,2.32
2018-11-22T13:34:13.631Z,2.19
2018-11-22T13:39:16.934Z,2.25
2018-11-22T13:44:20.177Z,2.30
2018-11-22T13:49:23.526Z,2.38
2018-11-22T13:54:26.918Z,2.34
2018-11-22T13:59:30.594Z,2.33
2018-11-22T14:04:33.873Z,2.39
2018-11-22T14:09:37.053Z,2.29
2018-11-22T14:14:40.300Z,2.16
2018-11-22T14:19:43.505Z,2.14
2018-11-22T14:24:46.755Z,2.14
2018-11-22T14:29:50.568Z,2.21
2018-11-22T14:34:56.541Z,2.21
2018-11-22T14:39:57.235Z,2.10
2018-11-22T14:45:00.454Z,2.03
2018-11-22T14:50:08.568Z,1.94
2018-11-22T14:55:11.758Z,1.90
2018-11-22T15:00:14.970Z,1.87
2018-11-22T15:05:18.239Z,1.79
2018-11-22T15:10:21.550Z,1.72
2018-11-22T15:15:24.959Z,1.79
2018-11-22T15:20:28.267Z,1.71
2018-11-22T15:25:31.460Z,1.73
2018-11-22T15:30:34.609Z,1.66
2018-11-22T15:35:37.806Z,1.62
2018-11-22T15:40:41.024Z,1.65
2018-11-22T15:45:44.371Z,1.62
2018-11-22T15:50:47.826Z,1.59
2018-11-22T15:55:51.981Z,1.59
2018-11-22T16:00:55.235Z,1.57
2018-11-22T16:05:58.464Z,1.55
2018-11-22T16:11:01.632Z,1.58
2018-11-22T16:16:05.686Z,1.60
2018-11-22T16:21:08.978Z,1.58
2018-11-22T16:26:12.148Z,1.59
2018-11-22T16:31:15.440Z,1.56
2018-11-22T16:36:19.853Z,1.57
2018-11-22T16:41:23.587Z,1.57
2018-11-22T16:46:27.014Z,1.54
2018-11-22T16:51:30.182Z,1.55
2018-11-22T16:56:35.138Z,1.57
2018-11-22T17:01:38.392Z,1.50
2018-11-22T17:06:41.676Z,1.50
2018-11-22T17:11:44.926Z,1.54
2018-11-22T17:16:48.284Z,1.49
2018-11-22T17:21:51.816Z,1.45
2018-11-22T17:26:55.104Z,1.43
2018-11-22T17:31:58.504Z,1.42
2018-11-22T17:37:03.615Z,1.45
2018-11-22T17:42:06.831Z,1.44
2018-11-22T17:47:09.973Z,1.41
2018-11-22T17:52:13.398Z,1.40
2018-11-22T17:57:16.613Z,1.33
2018-11-22T18:02:19.729Z,1.31
2018-11-22T18:07:23.570Z,1.37
2018-11-22T18:12:26.803Z,1.37
2018-11-22T18:17:29.994Z,1.31
2018-11-22T18:22:33.292Z,1.29
2018-11-22T18:27:36.500Z,1.25
2018-11-22T18:32:39.702Z,1.18
2018-11-22T18:37:42.849Z,1.22
2018-11-22T18:42:46.170Z,1.23
2018-11-22T18:47:49.398Z,1.27
2018-11-22T18:52:52.926Z,1.27
2018-11-22T18:58:07.430Z,1.29
2018-11-22T19:03:23.080Z,1.37
2018-11-22T19:08:44.888Z,1.41
2018-11-22T19:13:53.156Z,1.34
2018-11-22T19:19:03.003Z,1.19
2018-11-22T19:24:22.242Z,1.30
2018-11-22T19:29:40.119Z,1.32
2018-11-22T19:34:47.846Z,1.26
2018-11-22T19:39:55.430Z,1.23
2018-11-22T19:45:05.271Z,1.25
2018-11-22T19:50:19.188Z,1.25
2018-11-22T19:55:39.878Z,1.24
2018-11-22T20:00:54.559Z,1.24
2018-11-22T20:06:11.781Z,1.16
2018-11-22T20:11:30.754Z,1.19
2018-11-22T20:16:41.443Z,1.13
2018-11-22T20:21:54.415Z,1.01
2018-11-22T20:27:04.778Z,1.03
2018-11-22T20:32:20.494Z,1.03
2018-11-22T20:37:28.343Z,1.02
2018-11-22T20:42:37.509Z,1.00
2018-11-22T20:47:54.705Z,1.03
2018-11-22T20:53:14.757Z,1.03
2018-11-22T20:58:21.128Z,1.05
2018-11-22T21:03:24.386Z,1.01
2018-11-22T21:08:27.531Z,1.04
2018-11-22T21:13:38.959Z,1.05
2018-11-22T21:18:42.284Z,0.97
2018-11-22T21:23:57.747Z,0.99
2018-11-22T21:29:05.128Z,1.02
2018-11-22T21:34:08.523Z,1.06
2018-11-22T21:39:11.781Z,1.04
2018-11-22T21:44:15.302Z,1.07
2018-11-22T21:49:18.557Z,1.10
2018-11-22T21:54:22.077Z,1.05
2018-11-22T21:59:25.610Z,1.01
2018-11-22T22:04:28.926Z,0.99
2018-11-22T22:09:32.258Z,1.00
2018-11-22T22:14:35.479Z,1.07
2018-11-22T22:19:38.724Z,0.99
2018-11-22T22:24:41.941Z,0.92
2018-11-22T22:29:45.225Z,0.93
2018-11-22T22:34:48.435Z,0.86
2018-11-22T22:39:51.701Z,0.86
2018-11-22T22:44:55.010Z,0.86
2018-11-22T22:49:58.175Z,0.83
2018-11-22T22:55:01.499Z,0.83
2018-11-22T23:00:09.207Z,0.80
2018-11-22T23:05:12.457Z,0.86
2018-11-22T23:10:15.549Z,0.94
2018-11-22T23:15:18.825Z,0.94
2018-11-22T23:20:21.984Z,0.92
2018-11-22T23:25:25.138Z,0.90
2018-11-22T23:30:28.386Z,0.95
2018-11-22T23:35:31.731Z,0.97
2018-11-22T23:40:35.092Z,0.95
2018-11-22T23:45:38.247Z,1.01
2018-11-22T23:50:41.451Z,1.02
2018-11-22T23:55:44.667Z,1.04
